Time;durP1;ratioP1;P1;durP2;ratioP2;P2;SDS_P1;SDS_P2;PMS_P1;PMS_P2;Temp;Humidity;BMP_temperature;BMP_pressure;BME280_temperature;BME280_humidity;BME280_pressure;Samples;Min_cycle;Max_cycle;Signal;HPM_P1;HPM_P2
2022/12/31 00:01:35;;;;;;;0.70;0.70;;;12.00;99.90;;;;;;5110746;28;20516;-79
2022/12/31 00:04:01;;;;;;;0.85;0.60;;;12.00;99.90;;;;;;5110727;28;20050;-78
2022/12/31 00:06:30;;;;;;;1.77;0.75;;;12.00;99.90;;;;;;5109607;28;20502;-77
2022/12/31 00:08:58;;;;;;;0.80;0.70;;;12.10;99.90;;;;;;5110911;28;20035;-77
2022/12/31 00:11:25;;;;;;;0.70;0.60;;;12.10;99.90;;;;;;5109693;28;20465;-78
2022/12/31 00:13:52;;;;;;;0.85;0.77;;;12.00;99.90;;;;;;5110691;28;20051;-78
2022/12/31 00:16:21;;;;;;;0.50;0.50;;;12.10;99.90;;;;;;5110828;28;20126;-78
2022/12/31 00:18:49;;;;;;;0.47;0.47;;;12.10;99.90;;;;;;5109217;28;20038;-78
2022/12/31 00:21:16;;;;;;;2.00;0.80;;;12.10;99.90;;;;;;5110768;28;20106;-78
2022/12/31 00:23:43;;;;;;;0.82;0.63;;;12.10;99.90;;;;;;5111680;28;20095;-79
2022/12/31 00:26:15;;;;;;;0.50;0.50;;;12.10;99.90;;;;;;5114371;28;20030;-78
2022/12/31 00:28:41;;;;;;;0.60;0.40;;;12.10;99.90;;;;;;5113227;28;20514;-78
2022/12/31 00:31:12;;;;;;;0.93;0.70;;;12.10;99.90;;;;;;5114116;28;20047;-78
2022/12/31 00:33:39;;;;;;;0.88;0.50;;;12.10;99.90;;;;;;5113916;28;20057;-77
2022/12/31 00:36:19;;;;;;;4.40;0.60;;;12.10;99.90;;;;;;5112795;28;20020;-78
2022/12/31 00:38:48;;;;;;;0.55;0.55;;;12.20;99.90;;;;;;5113312;28;20024;-77
2022/12/31 00:41:15;;;;;;;3.72;0.52;;;12.10;99.90;;;;;;5114352;28;20115;-78
2022/12/31 00:43:41;;;;;;;1.08;0.60;;;12.10;99.90;;;;;;5112882;28;20031;-78
2022/12/31 00:46:08;;;;;;;1.00;0.63;;;12.20;99.90;;;;;;5112949;28;20020;-78
2022/12/31 00:48:34;;;;;;;0.70;0.70;;;12.10;99.90;;;;;;5113887;28;20024;-79
2022/12/31 00:51:01;;;;;;;0.88;0.55;;;12.20;99.90;;;;;;5114235;28;20034;-79
2022/12/31 00:53:28;;;;;;;1.35;0.70;;;12.20;99.90;;;;;;5114242;28;20165;-77
2022/12/31 00:55:59;;;;;;;0.82;0.63;;;12.20;99.90;;;;;;5113577;27;20047;-78
2022/12/31 00:58:25;;;;;;;0.70;0.50;;;12.30;99.90;;;;;;5113611;28;20545;-76
2022/12/31 01:00:51;;;;;;;0.65;0.60;;;12.30;99.90;;;;;;5113716;28;20118;-77
2022/12/31 01:03:16;;;;;;;1.10;0.80;;;12.30;99.90;;;;;;5113437;27;20457;-78
2022/12/31 01:05:42;;;;;;;1.08;0.45;;;12.40;99.90;;;;;;5112852;28;20130;-78
2022/12/31 01:08:08;;;;;;;3.15;0.63;;;12.40;99.90;;;;;;5112328;28;20393;-77
2022/12/31 01:13:18;;;;;;;2.33;0.60;;;12.40;99.90;;;;;;5113317;28;20060;-77
2022/12/31 01:15:43;;;;;;;0.47;0.35;;;12.50;99.90;;;;;;5113516;28;20388;-76
2022/12/31 01:18:09;;;;;;;2.35;0.60;;;12.50;99.90;;;;;;5113064;28;20345;-78
2022/12/31 01:20:37;;;;;;;2.05;0.50;;;12.50;99.90;;;;;;5113715;28;20449;-78
2022/12/31 01:23:04;;;;;;;0.68;0.60;;;12.50;99.90;;;;;;5111751;28;20034;-76
2022/12/31 01:25:29;;;;;;;0.60;0.60;;;12.50;99.90;;;;;;5111987;28;20047;-77
2022/12/31 01:27:55;;;;;;;0.95;0.68;;;12.50;99.90;;;;;;5111867;28;20066;-77
2022/12/31 01:30:21;;;;;;;0.70;0.50;;;12.50;99.90;;;;;;5111782;28;20089;-78
2022/12/31 01:32:46;;;;;;;1.77;0.70;;;12.50;99.90;;;;;;5112371;28;20026;-79
2022/12/31 01:35:12;;;;;;;1.13;0.80;;;12.60;99.90;;;;;;5112534;28;20028;-79
2022/12/31 01:37:37;;;;;;;2.17;0.60;;;12.60;99.90;;;;;;5112827;27;20123;-77
2022/12/31 01:40:04;;;;;;;1.02;0.73;;;12.60;99.90;;;;;;5112937;28;20040;-78
2022/12/31 01:42:29;;;;;;;0.60;0.60;;;12.60;99.90;;;;;;5111967;28;20361;-77
2022/12/31 01:44:55;;;;;;;0.52;0.50;;;12.70;99.90;;;;;;5113011;28;20154;-79
2022/12/31 01:47:33;;;;;;;0.57;0.50;;;12.60;99.90;;;;;;5111544;28;20024;-78
2022/12/31 01:50:16;;;;;;;4.82;1.30;;;12.60;99.90;;;;;;5111595;28;20024;-78
2022/12/31 01:52:46;;;;;;;1.08;0.70;;;12.60;99.90;;;;;;5112568;28;20020;-78
2022/12/31 01:55:20;;;;;;;0.70;0.55;;;12.60;99.90;;;;;;5112441;28;20369;-78
2022/12/31 01:57:50;;;;;;;0.43;0.43;;;12.60;99.90;;;;;;5112571;28;20124;-78
2022/12/31 02:00:15;;;;;;;0.75;0.60;;;12.60;99.90;;;;;;5112235;28;20042;-77
2022/12/31 02:02:41;;;;;;;0.98;0.70;;;12.60;99.90;;;;;;5112987;28;20429;-78
2022/12/31 02:05:24;;;;;;;0.50;0.43;;;12.60;99.90;;;;;;5112343;28;20496;-77
2022/12/31 02:07:50;;;;;;;0.95;0.73;;;12.60;99.90;;;;;;5112242;28;20135;-77
2022/12/31 02:10:16;;;;;;;0.65;0.55;;;12.50;99.90;;;;;;5111095;28;20039;-78
2022/12/31 02:12:42;;;;;;;0.85;0.50;;;12.50;99.90;;;;;;5113737;27;20380;-77
2022/12/31 02:15:08;;;;;;;0.60;0.57;;;12.50;99.90;;;;;;5111406;27;20032;-78
2022/12/31 02:18:00;;;;;;;1.38;0.32;;;12.50;99.90;;;;;;5112380;28;20055;-78
2022/12/31 02:20:43;;;;;;;0.77;0.65;;;12.50;99.90;;;;;;5111973;28;20078;-77
2022/12/31 02:23:28;;;;;;;0.30;0.30;;;12.50;99.90;;;;;;5112123;28;20032;-77
2022/12/31 02:26:24;;;;;;;0.90;0.60;;;12.50;99.90;;;;;;5111714;28;20412;-77
2022/12/31 02:29:19;;;;;;;3.03;0.60;;;12.50;99.90;;;;;;5110596;28;20038;-77
2022/12/31 02:32:03;;;;;;;0.45;0.40;;;12.50;99.90;;;;;;5111822;28;20038;-78
2022/12/31 02:34:37;;;;;;;3.50;0.60;;;12.50;99.90;;;;;;5111520;28;20084;-77
2022/12/31 02:37:08;;;;;;;0.38;0.30;;;12.50;99.90;;;;;;5091855;28;20043;-78
2022/12/31 02:39:35;;;;;;;1.40;0.30;;;12.50;99.90;;;;;;5091216;28;20039;-78
2022/12/31 02:42:01;;;;;;;0.75;0.50;;;12.50;99.90;;;;;;5091579;28;20020;-78
2022/12/31 02:44:30;;;;;;;0.50;0.47;;;12.50;99.90;;;;;;5091720;28;20016;-77
2022/12/31 02:47:07;;;;;;;0.38;0.38;;;12.50;99.90;;;;;;5090343;28;20036;-78
2022/12/31 02:49:41;;;;;;;0.90;0.68;;;12.50;99.90;;;;;;5091101;28;20029;-77
2022/12/31 02:52:48;;;;;;;1.38;0.50;;;12.50;99.90;;;;;;5091162;28;20028;-78
2022/12/31 02:55:33;;;;;;;0.55;0.25;;;12.50;99.90;;;;;;5090800;28;20028;-77
2022/12/31 02:58:12;;;;;;;0.30;0.30;;;12.50;99.90;;;;;;5090936;28;20043;-77
2022/12/31 03:03:30;;;;;;;0.77;0.40;;;12.50;99.90;;;;;;5091094;28;20039;-78
2022/12/31 03:05:57;;;;;;;0.40;0.35;;;12.50;99.90;;;;;;5091308;28;20040;-77
2022/12/31 03:08:24;;;;;;;1.03;0.47;;;12.50;99.90;;;;;;5090781;28;20062;-77
2022/12/31 03:10:50;;;;;;;0.60;0.40;;;12.50;99.90;;;;;;5089614;28;20040;-76
2022/12/31 03:13:16;;;;;;;0.50;0.40;;;12.60;99.90;;;;;;5090752;28;20088;-76
2022/12/31 03:15:42;;;;;;;2.30;0.50;;;12.50;99.90;;;;;;5090253;28;20416;-77
2022/12/31 03:18:11;;;;;;;2.15;0.50;;;12.50;99.90;;;;;;5090533;28;20036;-77
2022/12/31 03:23:40;;;;;;;3.17;0.50;;;12.60;99.90;;;;;;5090776;28;20093;-77
2022/12/31 03:26:11;;;;;;;0.50;0.50;;;12.60;99.90;;;;;;5089305;28;20606;-77
2022/12/31 03:28:42;;;;;;;0.85;0.40;;;12.60;99.90;;;;;;5090662;28;20036;-77
2022/12/31 03:31:08;;;;;;;1.15;0.65;;;12.70;99.90;;;;;;5090756;28;20028;-77
2022/12/31 03:33:36;;;;;;;0.98;0.25;;;12.60;99.90;;;;;;5090260;28;20035;-77
2022/12/31 03:36:11;;;;;;;2.03;0.50;;;12.60;99.90;;;;;;5089337;28;20449;-77
2022/12/31 03:38:37;;;;;;;4.78;3.47;;;12.60;99.90;;;;;;5089804;28;20423;-76
2022/12/31 03:41:03;;;;;;;0.95;0.75;;;12.60;99.90;;;;;;5090398;28;20123;-77
2022/12/31 03:43:29;;;;;;;0.45;0.45;;;12.60;99.90;;;;;;5089127;28;20411;-77
2022/12/31 03:45:57;;;;;;;0.95;0.45;;;12.60;99.90;;;;;;5090392;28;20457;-77
2022/12/31 03:48:23;;;;;;;;;;;12.60;99.90;;;;;;5090986;28;20024;-76
2022/12/31 03:50:49;;;;;;;0.88;0.45;;;12.60;99.90;;;;;;5089739;28;19984;-78
2022/12/31 03:53:15;;;;;;;0.43;0.35;;;12.50;99.90;;;;;;5089133;28;20032;-76
2022/12/31 03:55:41;;;;;;;0.63;0.40;;;12.50;99.90;;;;;;5090165;28;20471;-76
2022/12/31 03:58:07;;;;;;;2.40;0.40;;;12.50;99.90;;;;;;5090615;28;20074;-76
2022/12/31 04:00:34;;;;;;;0.55;0.32;;;12.50;99.90;;;;;;5094265;28;20135;-76
2022/12/31 04:02:59;;;;;;;0.38;0.20;;;12.60;99.90;;;;;;5093209;28;20024;-76
2022/12/31 04:05:25;;;;;;;1.27;0.35;;;12.60;99.90;;;;;;5093713;28;20032;-76
2022/12/31 04:07:51;;;;;;;0.88;0.40;;;12.50;99.90;;;;;;5094085;28;20299;-76
2022/12/31 04:10:18;;;;;;;1.23;0.50;;;12.60;99.90;;;;;;5094194;28;20089;-77
2022/12/31 04:12:44;;;;;;;0.30;0.20;;;12.50;99.90;;;;;;5093035;28;20361;-77
2022/12/31 04:15:15;;;;;;;0.57;0.30;;;12.60;99.90;;;;;;5093734;28;20048;-77
2022/12/31 04:17:40;;;;;;;0.82;0.30;;;12.60;99.90;;;;;;5093394;28;20034;-76
2022/12/31 04:20:07;;;;;;;0.35;0.30;;;12.60;99.90;;;;;;5093988;28;20115;-78
2022/12/31 04:22:32;;;;;;;1.30;0.80;;;12.60;99.90;;;;;;5092774;28;20028;-77
2022/12/31 04:24:58;;;;;;;1.15;0.70;;;12.60;99.90;;;;;;5092705;28;20523;-77
2022/12/31 04:27:24;;;;;;;1.42;0.40;;;12.50;99.90;;;;;;5093618;28;20024;-77
2022/12/31 04:29:49;;;;;;;2.20;0.60;;;12.40;99.90;;;;;;5094029;28;20052;-77
2022/12/31 04:32:18;;;;;;;3.15;0.70;;;12.50;99.90;;;;;;5092636;28;20307;-76
2022/12/31 04:34:44;;;;;;;0.60;0.60;;;12.50;99.90;;;;;;5093545;28;20024;-78
2022/12/31 04:37:09;;;;;;;0.65;0.38;;;12.70;99.90;;;;;;5092553;28;20089;-77
2022/12/31 04:39:35;;;;;;;1.00;0.43;;;12.60;99.90;;;;;;5092382;28;20043;-76
2022/12/31 04:42:00;;;;;;;0.60;0.57;;;12.70;99.90;;;;;;5093664;28;20593;-76
2022/12/31 04:44:26;;;;;;;1.45;0.85;;;12.80;99.90;;;;;;5094190;28;20078;-76
2022/12/31 04:46:52;;;;;;;2.10;0.50;;;12.70;99.90;;;;;;5093497;28;20477;-77
2022/12/31 04:49:18;;;;;;;2.67;0.52;;;12.70;99.90;;;;;;5093507;28;20104;-76
2022/12/31 04:51:43;;;;;;;2.67;0.60;;;12.70;99.90;;;;;;5093522;28;20107;-77
2022/12/31 04:54:09;;;;;;;1.60;0.60;;;12.80;99.90;;;;;;5093162;28;20488;-76
2022/12/31 04:56:35;;;;;;;0.60;0.40;;;12.80;99.90;;;;;;5093490;28;20052;-77
2022/12/31 04:59:02;;;;;;;0.82;0.40;;;12.80;99.90;;;;;;5093017;28;20036;-76
2022/12/31 05:01:27;;;;;;;0.68;0.65;;;12.80;99.90;;;;;;5091947;28;20032;-77
2022/12/31 05:03:53;;;;;;;1.85;0.50;;;12.90;99.90;;;;;;5093076;28;20123;-78
2022/12/31 05:06:21;;;;;;;1.17;0.60;;;12.90;99.90;;;;;;5092944;28;20550;-76
2022/12/31 05:08:47;;;;;;;1.90;0.73;;;12.90;99.90;;;;;;5093212;28;20454;-76
2022/12/31 05:11:14;;;;;;;0.95;0.57;;;12.90;99.90;;;;;;5092332;28;20032;-76
2022/12/31 05:13:40;;;;;;;2.28;0.52;;;12.90;99.90;;;;;;5092679;28;20354;-76
2022/12/31 05:16:06;;;;;;;0.32;0.30;;;12.80;99.90;;;;;;5092681;28;20544;-76
2022/12/31 05:18:32;;;;;;;1.25;0.40;;;12.90;99.90;;;;;;5092793;28;20024;-76
2022/12/31 05:20:59;;;;;;;1.25;0.40;;;12.90;99.90;;;;;;5093077;28;20140;-77
2022/12/31 05:23:24;;;;;;;0.35;0.28;;;12.90;99.90;;;;;;5092778;28;20036;-77
2022/12/31 05:25:51;;;;;;;0.32;0.32;;;12.90;99.90;;;;;;5092655;28;20040;-77
2022/12/31 05:28:17;;;;;;;3.60;0.43;;;12.90;99.90;;;;;;5092573;28;20097;-77
2022/12/31 05:30:43;;;;;;;0.30;0.30;;;12.90;99.90;;;;;;5092542;28;20232;-77
2022/12/31 05:33:09;;;;;;;1.45;0.70;;;12.90;99.90;;;;;;5091421;28;20079;-76
2022/12/31 05:35:35;;;;;;;1.88;0.80;;;12.90;99.90;;;;;;5092664;28;20408;-76
2022/12/31 05:38:01;;;;;;;0.47;0.30;;;12.90;99.90;;;;;;5092356;28;20353;-77
2022/12/31 05:40:27;;;;;;;1.95;0.50;;;12.90;99.90;;;;;;5092192;28;20032;-76
2022/12/31 05:42:53;;;;;;;0.47;0.22;;;12.90;99.90;;;;;;5092492;28;20047;-76
2022/12/31 05:45:19;;;;;;;1.08;0.40;;;12.90;99.90;;;;;;5091327;28;20024;-76
2022/12/31 05:47:45;;;;;;;1.85;0.60;;;12.90;99.90;;;;;;5092642;28;20474;-77
2022/12/31 05:50:14;;;;;;;1.23;0.40;;;12.90;99.90;;;;;;5092145;28;20070;-76
2022/12/31 05:52:40;;;;;;;0.73;0.30;;;12.90;99.90;;;;;;5092199;28;20115;-77
2022/12/31 05:55:06;;;;;;;0.17;0.17;;;12.90;99.90;;;;;;5092026;28;20035;-76
2022/12/31 05:57:32;;;;;;;0.88;0.28;;;12.90;99.90;;;;;;5090841;28;20115;-76
2022/12/31 05:59:57;;;;;;;0.20;0.10;;;12.90;99.90;;;;;;5092320;28;20028;-77
2022/12/31 06:02:23;;;;;;;2.20;0.40;;;12.90;99.90;;;;;;5091823;28;20032;-75
2022/12/31 06:04:49;;;;;;;1.00;0.30;;;12.90;99.90;;;;;;5091845;28;20458;-76
2022/12/31 06:07:15;;;;;;;0.52;0.20;;;12.90;99.90;;;;;;5090713;28;20035;-77
2022/12/31 06:09:40;;;;;;;0.75;0.30;;;13.00;99.90;;;;;;5091668;28;20028;-75
2022/12/31 06:12:06;;;;;;;0.10;0.10;;;12.90;99.90;;;;;;5091655;28;20020;-76
2022/12/31 06:14:32;;;;;;;0.40;0.20;;;12.90;99.90;;;;;;5091688;28;20027;-76
2022/12/31 06:16:58;;;;;;;0.93;0.43;;;12.90;99.90;;;;;;5091512;28;20363;-77
2022/12/31 06:19:24;;;;;;;0.45;0.20;;;12.90;99.90;;;;;;5091451;28;20500;-77
2022/12/31 06:21:50;;;;;;;0.40;0.20;;;12.90;99.90;;;;;;5090468;28;20032;-77
2022/12/31 06:24:16;;;;;;;0.57;0.10;;;12.90;99.90;;;;;;5091608;28;20439;-76
2022/12/31 06:26:41;;;;;;;1.17;0.30;;;12.90;99.90;;;;;;5092026;28;20032;-76
2022/12/31 06:29:07;;;;;;;1.05;0.30;;;13.00;99.90;;;;;;5091599;28;20556;-76
2022/12/31 06:31:33;;;;;;;1.75;0.30;;;12.90;99.90;;;;;;5091555;28;20044;-76
2022/12/31 06:33:59;;;;;;;0.50;0.17;;;13.00;99.90;;;;;;5090201;28;20032;-76
2022/12/31 06:36:25;;;;;;;0.35;0.25;;;12.90;99.90;;;;;;5091326;28;20040;-76
2022/12/31 06:38:51;;;;;;;1.13;0.35;;;12.90;99.90;;;;;;5091502;28;20361;-75
2022/12/31 06:41:18;;;;;;;0.85;0.40;;;12.90;99.90;;;;;;5091275;28;20028;-76
2022/12/31 06:43:44;;;;;;;2.45;0.43;;;12.90;99.90;;;;;;5089948;28;20085;-76
2022/12/31 06:46:12;;;;;;;0.50;0.30;;;12.90;99.90;;;;;;5091013;28;20046;-76
2022/12/31 06:48:40;;;;;;;;;;;12.90;99.90;;;;;;5091491;28;20123;-76
2022/12/31 06:51:09;;;;;;;1.55;0.32;;;12.90;99.90;;;;;;5091065;28;19904;-76
2022/12/31 06:53:35;;;;;;;2.97;0.47;;;12.90;99.90;;;;;;5091393;28;20020;-75
2022/12/31 06:56:06;;;;;;;0.73;0.40;;;12.90;99.90;;;;;;5091018;28;20047;-76
2022/12/31 06:58:32;;;;;;;2.40;0.68;;;12.90;99.90;;;;;;5089691;28;20370;-74
2022/12/31 07:01:13;;;;;;;0.30;0.30;;;12.90;99.90;;;;;;5090997;28;20047;-75
2022/12/31 07:03:42;;;;;;;1.33;0.43;;;12.90;99.90;;;;;;5090919;28;20054;-76
2022/12/31 07:06:11;;;;;;;0.60;0.40;;;12.90;99.90;;;;;;5089672;28;20465;-76
2022/12/31 07:08:53;;;;;;;0.50;0.43;;;12.90;99.90;;;;;;5091343;28;20283;-76
2022/12/31 07:11:40;;;;;;;0.50;0.50;;;12.90;99.90;;;;;;5090755;28;20028;-76
2022/12/31 07:14:10;;;;;;;0.80;0.60;;;12.90;99.90;;;;;;5090759;28;20120;-76
2022/12/31 07:16:58;;;;;;;0.52;0.52;;;12.90;99.90;;;;;;5090590;28;20048;-76
2022/12/31 07:19:42;;;;;;;0.68;0.50;;;12.90;99.90;;;;;;5090535;28;20047;-76
2022/12/31 07:22:14;;;;;;;0.80;0.32;;;12.90;99.90;;;;;;5090694;28;20131;-77
2022/12/31 07:24:41;;;;;;;0.80;0.43;;;12.90;99.90;;;;;;5089421;28;20028;-76
2022/12/31 07:27:25;;;;;;;0.35;0.35;;;12.90;99.90;;;;;;5090537;28;20128;-76
2022/12/31 07:30:00;;;;;;;0.90;0.45;;;12.90;99.90;;;;;;5090906;28;20039;-77
2022/12/31 07:32:56;;;;;;;2.40;1.20;;;12.90;99.90;;;;;;5090141;28;20115;-76
2022/12/31 07:35:40;;;;;;;1.20;1.00;;;12.90;99.90;;;;;;5090435;28;20028;-76
2022/12/31 07:38:27;;;;;;;1.38;0.98;;;12.90;99.90;;;;;;5090685;28;20028;-76
2022/12/31 07:41:03;;;;;;;4.57;2.88;;;12.90;99.90;;;;;;5090346;28;20040;-78
2022/12/31 07:43:40;;;;;;;2.58;0.70;;;12.90;99.90;;;;;;5090188;28;20527;-77
2022/12/31 07:46:20;;;;;;;2.25;0.60;;;12.90;99.90;;;;;;5090566;28;20044;-75
2022/12/31 07:48:45;;;;;;;1.65;0.80;;;12.90;99.90;;;;;;5089288;28;20084;-77
2022/12/31 07:51:11;;;;;;;1.65;0.85;;;12.90;99.90;;;;;;5090902;28;20028;-76
2022/12/31 07:53:37;;;;;;;2.13;1.00;;;12.90;99.90;;;;;;5089548;28;20055;-75
2022/12/31 07:56:05;;;;;;;2.28;1.27;;;12.90;99.90;;;;;;5090277;28;20044;-76
2022/12/31 07:58:50;;;;;;;2.85;1.27;;;12.90;99.90;;;;;;5090265;28;20373;-75
2022/12/31 08:01:27;;;;;;;2.17;1.38;;;12.90;99.90;;;;;;5089222;28;20043;-77
2022/12/31 08:04:17;;;;;;;3.45;2.05;;;12.90;99.90;;;;;;5090386;28;20051;-76
2022/12/31 08:07:06;;;;;;;5.88;2.50;;;12.90;99.90;;;;;;5089163;28;20040;-75
2022/12/31 08:10:01;;;;;;;7.15;3.42;;;12.90;99.90;;;;;;5088928;28;20032;-76
2022/12/31 08:12:32;;;;;;;4.13;2.72;;;12.90;99.90;;;;;;5090189;28;20052;-75
2022/12/31 08:14:58;;;;;;;2.75;1.90;;;12.90;99.90;;;;;;5090348;28;20450;-78
2022/12/31 08:17:24;;;;;;;5.53;2.20;;;12.90;99.90;;;;;;5089881;28;20466;-77
2022/12/31 08:19:50;;;;;;;2.45;1.80;;;12.90;99.90;;;;;;5089855;28;20032;-76
2022/12/31 08:22:25;;;;;;;3.75;2.22;;;12.90;99.90;;;;;;5090123;28;20032;-76
2022/12/31 08:24:57;;;;;;;2.15;1.55;;;12.90;99.90;;;;;;5089849;28;20021;-75
2022/12/31 08:27:31;;;;;;;2.95;1.30;;;12.90;99.90;;;;;;5089953;28;20073;-76
2022/12/31 08:30:08;;;;;;;0.98;0.77;;;13.00;99.90;;;;;;5090210;28;20096;-75
2022/12/31 08:32:45;;;;;;;0.70;0.63;;;13.00;99.90;;;;;;5090420;28;20039;-76
2022/12/31 08:35:32;;;;;;;1.98;1.38;;;12.90;99.90;;;;;;5090167;28;20031;-76
2022/12/31 08:38:15;;;;;;;0.50;0.50;;;12.90;99.90;;;;;;5089926;28;20578;-76
2022/12/31 08:41:05;;;;;;;1.25;0.80;;;13.00;99.90;;;;;;5089650;28;20035;-76
2022/12/31 08:43:43;;;;;;;0.98;0.70;;;13.00;99.90;;;;;;5089693;28;20038;-77
2022/12/31 08:46:24;;;;;;;1.50;0.88;;;12.90;99.90;;;;;;5092601;28;20115;-77
2022/12/31 08:48:50;;;;;;;1.60;1.17;;;13.00;99.90;;;;;;5093431;28;20135;-77
2022/12/31 08:51:21;;;;;;;3.33;1.30;;;12.90;99.90;;;;;;5093353;28;20099;-76
2022/12/31 08:53:47;;;;;;;1.25;0.98;;;12.90;99.90;;;;;;5094053;28;20024;-77
2022/12/31 08:56:19;;;;;;;3.35;1.63;;;13.00;99.90;;;;;;5093212;28;20112;-77
2022/12/31 08:59:19;;;;;;;3.08;1.77;;;13.00;99.90;;;;;;5093376;28;20036;-76
2022/12/31 09:01:48;;;;;;;2.55;1.42;;;13.00;99.90;;;;;;5092232;28;20032;-75
2022/12/31 09:04:34;;;;;;;6.82;4.03;;;13.00;99.90;;;;;;5093056;28;20466;-76
2022/12/31 09:07:02;;;;;;;12.13;6.20;;;13.00;99.90;;;;;;5093154;28;20032;-77
2022/12/31 09:09:43;;;;;;;;;;;13.10;99.90;;;;;;5093347;28;20109;-76
2022/12/31 09:12:17;;;;;;;2.47;1.38;;;13.00;99.90;;;;;;5092685;28;19998;-75
2022/12/31 09:14:51;;;;;;;2.97;1.17;;;13.00;99.90;;;;;;5093122;28;20431;-76
2022/12/31 09:17:29;;;;;;;8.45;4.40;;;13.10;99.90;;;;;;5092883;28;20044;-76
2022/12/31 09:19:55;;;;;;;3.78;2.35;;;13.10;99.90;;;;;;5091509;28;20032;-76
2022/12/31 09:22:20;;;;;;;1.33;1.13;;;13.10;99.90;;;;;;5091602;28;20028;-77
2022/12/31 09:24:46;;;;;;;0.95;0.80;;;13.10;99.90;;;;;;5092691;28;20040;-77
2022/12/31 09:27:37;;;;;;;2.22;0.90;;;13.10;99.90;;;;;;5092527;28;20031;-76
2022/12/31 09:30:12;;;;;;;9.13;5.13;;;13.10;99.90;;;;;;5092445;28;20483;-76
2022/12/31 09:32:50;;;;;;;5.45;3.05;;;13.10;99.90;;;;;;5092983;28;20076;-75
2022/12/31 09:35:41;;;;;;;4.07;1.55;;;13.20;99.90;;;;;;5092821;28;20048;-76
2022/12/31 09:38:25;;;;;;;1.70;1.15;;;13.20;99.90;;;;;;5092371;28;20035;-76
2022/12/31 09:41:28;;;;;;;1.92;0.70;;;13.30;99.90;;;;;;5092346;28;20446;-75
2022/12/31 09:44:25;;;;;;;1.73;0.75;;;13.30;99.90;;;;;;5092312;28;20132;-76
2022/12/31 09:47:19;;;;;;;0.95;0.73;;;13.30;99.90;;;;;;5092242;28;20035;-77
2022/12/31 09:50:16;;;;;;;2.25;0.85;;;13.40;99.90;;;;;;5091111;28;20036;-76
2022/12/31 09:53:12;;;;;;;5.57;1.23;;;13.50;99.90;;;;;;5092017;28;20117;-77
2022/12/31 09:56:14;;;;;;;1.95;0.90;;;13.60;99.90;;;;;;5091049;28;20440;-77
2022/12/31 09:59:04;;;;;;;4.93;0.82;;;13.60;99.90;;;;;;5040026;28;20402;-77
2022/12/31 10:01:35;;;;;;;2.80;0.85;;;13.70;99.90;;;;;;5092042;28;20093;-76
2022/12/31 10:04:11;;;;;;;4.28;1.63;;;13.80;99.90;;;;;;5090454;28;20469;-75
2022/12/31 10:06:49;;;;;;;3.33;1.10;;;14.10;99.90;;;;;;5092168;28;20339;-76
2022/12/31 10:09:38;;;;;;;2.05;0.95;;;14.20;99.90;;;;;;5090505;28;20462;-76
2022/12/31 10:12:38;;;;;;;4.88;0.93;;;14.30;99.90;;;;;;5090459;28;20032;-77
2022/12/31 10:15:34;;;;;;;1.55;1.08;;;14.50;99.90;;;;;;5091458;28;20036;-76
2022/12/31 10:18:33;;;;;;;3.13;1.00;;;14.60;99.90;;;;;;5083756;28;20071;-76
2022/12/31 10:21:27;;;;;;;4.13;1.00;;;14.70;99.90;;;;;;5091504;28;20497;-76
2022/12/31 10:24:07;;;;;;;4.60;1.08;;;14.90;99.90;;;;;;5092047;28;20389;-76
2022/12/31 10:27:00;;;;;;;0.73;0.52;;;15.10;99.90;;;;;;5091899;28;20036;-75
2022/12/31 10:29:38;;;;;;;0.93;0.50;;;15.20;99.90;;;;;;5090309;28;20372;-77
2022/12/31 10:32:15;;;;;;;1.75;0.70;;;15.30;99.90;;;;;;5091349;28;20181;-75
2022/12/31 10:34:51;;;;;;;4.68;1.20;;;15.40;99.90;;;;;;5091592;28;20036;-75
2022/12/31 10:37:22;;;;;;;1.00;0.50;;;15.50;99.90;;;;;;5090576;28;20351;-76
2022/12/31 10:39:59;;;;;;;3.58;0.88;;;15.50;99.90;;;;;;5091214;28;20432;-76
2022/12/31 10:43:02;;;;;;;2.88;0.90;;;15.60;99.90;;;;;;5090107;28;20031;-77
2022/12/31 10:45:55;;;;;;;2.47;0.63;;;15.60;99.90;;;;;;5091078;28;20032;-76
2022/12/31 10:49:08;;;;;;;1.42;0.50;;;15.70;99.90;;;;;;5091334;28;20032;-78
2022/12/31 10:52:15;;;;;;;2.35;1.10;;;15.70;99.90;;;;;;5054201;28;20117;-78
2022/12/31 10:54:43;;;;;;;4.25;0.93;;;15.80;99.90;;;;;;5090888;28;20357;-76
2022/12/31 10:57:56;;;;;;;2.97;0.60;;;15.80;99.90;;;;;;5090882;28;20119;-74
2022/12/31 11:00:25;;;;;;;4.18;0.60;;;15.90;99.90;;;;;;5043545;28;20478;-78
2022/12/31 11:03:13;;;;;;;1.63;0.32;;;16.00;99.90;;;;;;5090313;28;20364;-77
2022/12/31 11:05:57;;;;;;;2.20;0.52;;;16.00;99.90;;;;;;5091137;28;20124;-76
2022/12/31 11:08:51;;;;;;;2.45;0.50;;;16.00;99.90;;;;;;5090196;28;20032;-75
2022/12/31 11:11:23;;;;;;;0.57;0.38;;;16.10;99.90;;;;;;5089759;28;20131;-77
2022/12/31 11:14:16;;;;;;;1.90;0.57;;;16.20;99.90;;;;;;5089349;28;20121;-75
2022/12/31 11:17:31;;;;;;;3.00;0.50;;;16.30;99.90;;;;;;5090454;28;20484;-75
2022/12/31 11:20:15;;;;;;;0.63;0.30;;;16.40;99.90;;;;;;5076192;28;20036;-75
2022/12/31 11:22:47;;;;;;;1.88;0.40;;;16.40;99.90;;;;;;5090834;28;20068;-77
2022/12/31 11:25:42;;;;;;;4.20;0.85;;;16.50;99.90;;;;;;5090708;28;20031;-76
2022/12/31 11:28:26;;;;;;;1.15;0.45;;;16.50;99.90;;;;;;5089441;28;20036;-76
2022/12/31 11:31:09;;;;;;;4.47;0.57;;;16.40;99.90;;;;;;5090521;28;20091;-77
2022/12/31 11:34:02;;;;;;;3.20;0.80;;;16.20;99.90;;;;;;5090454;28;20055;-76
2022/12/31 11:36:49;;;;;;;1.27;0.40;;;16.00;99.90;;;;;;5091064;28;20351;-76
2022/12/31 11:40:00;;;;;;;0.60;0.47;;;15.70;99.90;;;;;;5090595;28;20108;-76
2022/12/31 11:42:51;;;;;;;0.55;0.50;;;15.60;99.90;;;;;;5090328;28;20024;-78
2022/12/31 11:45:52;;;;;;;1.15;0.43;;;15.50;99.90;;;;;;5090250;28;20032;-75
2022/12/31 11:48:30;;;;;;;0.85;0.35;;;15.50;99.90;;;;;;5090348;28;20026;-78
2022/12/31 11:51:22;;;;;;;2.42;0.68;;;15.50;99.90;;;;;;5090677;28;20422;-76
2022/12/31 11:54:07;;;;;;;2.33;0.50;;;15.50;99.90;;;;;;5090414;28;20036;-76
2022/12/31 11:56:49;;;;;;;2.85;1.10;;;15.50;99.90;;;;;;5090248;28;20454;-76
2022/12/31 11:59:15;;;;;;;2.72;1.38;;;15.50;99.90;;;;;;5089051;28;20196;-76
2022/12/31 12:01:56;;;;;;;1.73;0.90;;;15.50;99.90;;;;;;5090195;28;20497;-76
2022/12/31 12:04:22;;;;;;;5.45;1.17;;;15.50;99.90;;;;;;5090084;28;20107;-76
2022/12/31 12:06:47;;;;;;;2.20;0.82;;;15.50;99.90;;;;;;5090223;28;20059;-76
2022/12/31 12:09:19;;;;;;;1.92;0.98;;;15.50;99.90;;;;;;5089140;28;20039;-76
2022/12/31 12:11:45;;;;;;;4.57;0.88;;;15.50;99.90;;;;;;5089940;28;20032;-76
2022/12/31 12:14:21;;;;;;;2.40;0.77;;;15.50;99.90;;;;;;5090092;28;20105;-76
2022/12/31 12:16:53;;;;;;;2.97;1.10;;;15.50;99.90;;;;;;5090789;28;20093;-77
2022/12/31 12:19:22;;;;;;;7.18;0.90;;;15.50;99.90;;;;;;5092970;28;20116;-77
2022/12/31 12:21:48;;;;;;;2.47;1.80;;;15.50;99.90;;;;;;5094797;28;20032;-75
2022/12/31 12:24:26;;;;;;;2.83;1.83;;;15.50;99.90;;;;;;5094371;28;20023;-75
2022/12/31 12:26:52;;;;;;;6.45;1.60;;;15.60;99.90;;;;;;5094203;28;20354;-76
2022/12/31 12:29:27;;;;;;;5.70;1.88;;;15.60;99.90;;;;;;5095120;28;20032;-77
2022/12/31 12:32:17;;;;;;;4.75;2.00;;;15.60;99.90;;;;;;5094247;28;20047;-76
2022/12/31 12:34:43;;;;;;;6.43;2.30;;;15.60;99.90;;;;;;5093730;28;20294;-77
2022/12/31 12:37:24;;;;;;;7.82;1.85;;;15.70;99.90;;;;;;5093475;28;20144;-76
2022/12/31 12:40:22;;;;;;;7.45;1.83;;;15.70;99.90;;;;;;5093481;28;20040;-77
2022/12/31 12:42:51;;;;;;;4.45;1.80;;;15.80;99.90;;;;;;5059710;28;20032;-76
2022/12/31 12:45:18;;;;;;;5.40;2.40;;;15.90;99.90;;;;;;5092281;28;20350;-77
2022/12/31 12:47:46;;;;;;;6.67;1.87;;;15.90;99.90;;;;;;5092882;28;20024;-76
2022/12/31 12:50:20;;;;;;;;;;;16.00;99.90;;;;;;5093005;28;20054;-76
2022/12/31 12:53:09;;;;;;;12.82;6.30;;;16.00;99.90;;;;;;5093478;28;19908;-75
2022/12/31 12:55:50;;;;;;;10.20;5.07;;;16.00;99.90;;;;;;5093564;28;20032;-77
2022/12/31 12:58:40;;;;;;;6.28;2.67;;;16.00;99.90;;;;;;5093619;28;20055;-77
2022/12/31 13:01:27;;;;;;;7.07;2.83;;;16.00;99.90;;;;;;5093140;28;20286;-77
2022/12/31 13:04:33;;;;;;;8.75;4.00;;;16.00;99.90;;;;;;5092156;28;20050;-76
2022/12/31 13:07:15;;;;;;;4.63;2.45;;;16.00;99.90;;;;;;5093105;28;20131;-77
2022/12/31 13:10:10;;;;;;;2.97;1.25;;;16.00;99.90;;;;;;5093039;28;20242;-76
2022/12/31 13:12:54;;;;;;;2.50;1.15;;;16.10;99.90;;;;;;5093087;28;20064;-77
2022/12/31 13:15:25;;;;;;;4.32;1.40;;;16.10;99.90;;;;;;5093088;28;20040;-76
2022/12/31 13:17:53;;;;;;;2.55;1.45;;;16.10;99.90;;;;;;5093444;28;20024;-76
2022/12/31 13:20:53;;;;;;;7.03;2.60;;;16.20;99.90;;;;;;5092773;28;20131;-76
2022/12/31 13:23:33;;;;;;;3.28;1.52;;;16.20;99.90;;;;;;5069128;28;20119;-76
2022/12/31 13:26:14;;;;;;;2.53;1.35;;;16.20;99.90;;;;;;5092965;28;20074;-77
2022/12/31 13:28:42;;;;;;;4.88;1.60;;;16.20;99.90;;;;;;5093077;28;20116;-77
2022/12/31 13:31:16;;;;;;;4.72;2.05;;;16.20;99.90;;;;;;5092195;28;20028;-75
2022/12/31 13:33:47;;;;;;;4.95;2.25;;;16.20;99.90;;;;;;5091650;28;20025;-76